Time;durP1;ratioP1;P1;durP2;ratioP2;P2;SDS_P1;SDS_P2;PMS_P1;PMS_P2;Temp;Humidity;BMP_temperature;BMP_pressure;BME280_temperature;BME280_humidity;BME280_pressure;Samples;Min_cycle;Max_cycle;Signal;HPM_P1;HPM_P2
2022/03/20 00:01:04;;;;;;;16.83;14.88;;;3.20;46.90;;;;;;5097773;28;20028;-61
2022/03/20 00:03:31;;;;;;;17.85;14.57;;;3.20;46.90;;;;;;5100046;28;21767;-62
2022/03/20 00:05:58;;;;;;;17.98;15.55;;;3.20;47.70;;;;;;5085514;28;20024;-62
2022/03/20 00:08:24;;;;;;;18.42;14.73;;;3.20;47.10;;;;;;5093028;28;20023;-62
2022/03/20 00:10:52;;;;;;;17.38;14.63;;;3.30;47.20;;;;;;5098171;28;20069;-61
2022/03/20 00:13:23;;;;;;;18.88;15.60;;;3.30;47.20;;;;;;5091150;28;20036;-61
2022/03/20 00:15:54;;;;;;;16.42;14.65;;;3.30;47.30;;;;;;5085195;28;20071;-61
2022/03/20 00:18:21;;;;;;;17.60;14.82;;;3.20;47.20;;;;;;5088129;28;20032;-61
2022/03/20 00:20:49;;;;;;;17.27;14.18;;;3.20;47.20;;;;;;5097636;28;20024;-61
2022/03/20 00:23:17;;;;;;;17.30;14.48;;;3.20;47.20;;;;;;5083020;28;20525;-61
2022/03/20 00:25:44;;;;;;;17.80;15.00;;;3.20;47.20;;;;;;5094993;28;20055;-61
2022/03/20 00:28:12;;;;;;;18.40;15.07;;;3.20;47.30;;;;;;5086744;28;20024;-61
2022/03/20 00:30:38;;;;;;;18.15;14.98;;;3.20;47.20;;;;;;5096288;28;20028;-61
2022/03/20 00:33:04;;;;;;;20.45;15.43;;;3.10;47.20;;;;;;5095035;28;20027;-61
2022/03/20 00:35:30;;;;;;;20.75;14.82;;;3.10;47.20;;;;;;5103907;28;20039;-61
2022/03/20 00:37:56;;;;;;;18.40;14.10;;;3.20;47.20;;;;;;5078000;28;20455;-61
2022/03/20 00:40:22;;;;;;;17.92;14.90;;;3.20;47.30;;;;;;5100460;28;20037;-61
2022/03/20 00:42:48;;;;;;;17.48;15.38;;;3.10;47.20;;;;;;5080775;28;20036;-61
2022/03/20 00:45:13;;;;;;;19.38;15.73;;;3.10;47.30;;;;;;5076302;28;20035;-62
2022/03/20 00:47:39;;;;;;;18.35;14.82;;;3.10;47.50;;;;;;5087764;28;20065;-61
2022/03/20 00:50:05;;;;;;;21.65;15.07;;;3.10;47.70;;;;;;5092741;28;20020;-61
2022/03/20 00:52:32;;;;;;;18.00;14.63;;;3.10;47.90;;;;;;5086334;28;20052;-61
2022/03/20 00:55:01;;;;;;;17.50;14.75;;;3.10;48.00;;;;;;5105481;28;20031;-61
2022/03/20 00:57:27;;;;;;;18.80;15.23;;;3.10;48.20;;;;;;5085907;28;20028;-61
2022/03/20 00:59:52;;;;;;;19.17;15.25;;;3.00;48.30;;;;;;5076690;28;20032;-61
2022/03/20 01:02:18;;;;;;;19.15;15.23;;;3.00;48.30;;;;;;5091193;28;20027;-61
2022/03/20 01:04:44;;;;;;;16.98;14.25;;;3.00;48.40;;;;;;5111749;28;20028;-61
2022/03/20 01:07:10;;;;;;;19.10;14.70;;;3.00;48.40;;;;;;5085538;28;20485;-61
2022/03/20 01:09:35;;;;;;;19.90;14.75;;;3.00;48.50;;;;;;5086229;28;20381;-61
2022/03/20 01:12:02;;;;;;;17.23;15.15;;;3.00;48.70;;;;;;5074386;28;20028;-62
2022/03/20 01:14:28;;;;;;;17.30;14.85;;;2.90;48.90;;;;;;5080401;28;20110;-61
2022/03/20 01:16:54;;;;;;;16.90;14.40;;;3.00;49.10;;;;;;5091076;28;20024;-61
2022/03/20 01:19:24;;;;;;;18.77;14.95;;;2.90;49.30;;;;;;5087356;28;20023;-61
2022/03/20 01:21:51;;;;;;;21.30;16.15;;;2.90;49.80;;;;;;5088635;28;20396;-61
2022/03/20 01:24:16;;;;;;;18.35;15.13;;;2.90;50.00;;;;;;5113742;28;20023;-61
2022/03/20 01:26:42;;;;;;;19.55;15.15;;;2.90;50.20;;;;;;5097050;28;20066;-61
2022/03/20 01:29:08;;;;;;;20.05;16.15;;;2.90;50.30;;;;;;5086474;28;20032;-61
2022/03/20 01:31:38;;;;;;;17.95;15.32;;;2.90;50.30;;;;;;5088928;28;20036;-61
2022/03/20 01:34:04;;;;;;;20.90;15.75;;;2.90;50.30;;;;;;5105188;28;20581;-61
2022/03/20 01:36:30;;;;;;;18.52;15.73;;;2.90;50.30;;;;;;5089592;28;20097;-61
2022/03/20 01:38:56;;;;;;;18.23;15.43;;;2.90;50.50;;;;;;5112813;28;20015;-61
2022/03/20 01:41:23;;;;;;;18.25;14.90;;;2.90;50.80;;;;;;5102115;28;20082;-61
2022/03/20 01:43:54;;;;;;;20.48;16.02;;;2.80;51.00;;;;;;5097562;28;20028;-61
2022/03/20 01:46:20;;;;;;;17.52;15.07;;;2.80;51.10;;;;;;5092441;28;20028;-61
2022/03/20 01:48:46;;;;;;;15.88;14.07;;;2.80;51.20;;;;;;5096215;28;20028;-61
2022/03/20 01:51:13;;;;;;;16.98;15.10;;;2.80;51.30;;;;;;5086021;28;20035;-62
2022/03/20 01:53:39;;;;;;;20.98;15.75;;;2.80;51.20;;;;;;5097610;28;20024;-61
2022/03/20 01:56:05;;;;;;;18.42;15.60;;;2.80;51.20;;;;;;5104539;28;20084;-61
2022/03/20 01:58:32;;;;;;;17.27;14.95;;;2.80;51.10;;;;;;5108019;28;20073;-61
2022/03/20 02:00:58;;;;;;;20.13;16.63;;;2.80;51.10;;;;;;5091300;28;20475;-61
2022/03/20 02:03:24;;;;;;;21.42;16.15;;;2.80;51.10;;;;;;5097772;28;20035;-61
2022/03/20 02:05:51;;;;;;;26.08;16.10;;;2.70;51.10;;;;;;5089574;28;20155;-61
2022/03/20 02:08:25;;;;;;;21.33;17.17;;;2.70;51.00;;;;;;5113006;28;20083;-61
2022/03/20 02:10:51;;;;;;;23.00;17.52;;;2.70;51.20;;;;;;5087642;28;20017;-61
2022/03/20 02:13:22;;;;;;;21.15;16.42;;;2.70;51.30;;;;;;5100334;28;20103;-61
2022/03/20 02:15:50;;;;;;;20.92;16.42;;;2.70;51.40;;;;;;5098894;27;20054;-61
2022/03/20 02:18:17;;;;;;;22.35;17.30;;;2.70;51.40;;;;;;5089425;28;20037;-61
2022/03/20 02:20:49;;;;;;;20.67;17.17;;;2.70;51.50;;;;;;5096399;28;20024;-61
2022/03/20 02:23:15;;;;;;;21.27;16.63;;;2.70;51.50;;;;;;5100584;28;20051;-61
2022/03/20 02:25:51;;;;;;;19.15;16.75;;;2.70;51.50;;;;;;5104029;28;20380;-61
2022/03/20 02:28:17;;;;;;;20.40;16.88;;;2.70;51.50;;;;;;5104269;28;20107;-61
2022/03/20 02:30:43;;;;;;;21.95;17.38;;;2.70;51.70;;;;;;5087368;28;20017;-61
2022/03/20 02:33:09;;;;;;;21.45;16.88;;;2.70;51.70;;;;;;5094436;28;20086;-61
2022/03/20 02:35:36;;;;;;;20.35;16.63;;;2.70;51.70;;;;;;5089221;28;20036;-61
2022/03/20 02:38:02;;;;;;;20.52;17.50;;;2.70;51.60;;;;;;5083524;28;20048;-61
2022/03/20 02:40:28;;;;;;;21.65;17.52;;;2.70;51.70;;;;;;5104985;28;20044;-61
2022/03/20 02:42:54;;;;;;;20.48;16.80;;;2.70;51.70;;;;;;5086163;28;20078;-61
2022/03/20 02:45:22;;;;;;;26.67;18.20;;;2.70;51.70;;;;;;5104848;28;20480;-61
2022/03/20 02:47:50;;;;;;;20.92;18.35;;;2.70;51.60;;;;;;5101734;28;20024;-61
2022/03/20 02:50:19;;;;;;;24.20;18.70;;;2.70;51.60;;;;;;5099905;28;20032;-61
2022/03/20 02:52:58;;;;;;;24.00;18.60;;;2.70;51.60;;;;;;5101260;28;20028;-61
2022/03/20 02:55:31;;;;;;;22.45;18.45;;;2.70;51.50;;;;;;5088987;28;20024;-61
2022/03/20 02:58:01;;;;;;;22.45;18.63;;;2.70;51.60;;;;;;5096260;28;20092;-61
2022/03/20 03:00:29;;;;;;;22.70;18.80;;;2.60;51.60;;;;;;5093474;28;20023;-61
2022/03/20 03:02:57;;;;;;;24.77;19.35;;;2.60;51.70;;;;;;5098024;28;20391;-61
2022/03/20 03:05:24;;;;;;;24.92;19.27;;;2.60;51.70;;;;;;5107809;28;20038;-61
2022/03/20 03:10:56;;;;;;;22.85;18.27;;;2.60;51.80;;;;;;5102309;28;20431;-61
2022/03/20 03:13:52;;;;;;;25.65;18.02;;;2.50;51.90;;;;;;5102612;28;20456;-61
2022/03/20 03:16:18;;;;;;;24.67;17.48;;;2.50;52.10;;;;;;5079238;28;20041;-61
2022/03/20 03:18:47;;;;;;;21.88;18.17;;;2.40;52.10;;;;;;5078463;28;20051;-61
2022/03/20 03:21:17;;;;;;;20.83;17.65;;;2.40;52.20;;;;;;5081901;28;20031;-61
2022/03/20 03:23:44;;;;;;;20.13;17.38;;;2.40;52.30;;;;;;5092765;28;20073;-61
2022/03/20 03:26:11;;;;;;;24.52;17.75;;;2.40;52.40;;;;;;5080948;28;20530;-61
2022/03/20 03:28:37;;;;;;;20.30;17.70;;;2.40;52.50;;;;;;5094107;28;20387;-61
2022/03/20 03:31:12;;;;;;;23.75;18.70;;;2.40;52.50;;;;;;5102454;28;20034;-61
2022/03/20 03:36:25;;;;;;;21.02;18.08;;;2.30;52.30;;;;;;5087147;28;20406;-61
2022/03/20 03:38:51;;;;;;;23.67;19.13;;;2.30;52.30;;;;;;5104540;28;20540;-61
2022/03/20 03:41:16;;;;;;;24.30;19.45;;;2.30;52.20;;;;;;5107152;28;20035;-61
2022/03/20 03:43:43;;;;;;;25.02;18.92;;;2.30;52.30;;;;;;5108086;28;20023;-61
2022/03/20 03:46:09;;;;;;;23.52;18.85;;;2.30;52.30;;;;;;5094992;28;20028;-61
2022/03/20 03:48:34;;;;;;;24.45;19.52;;;2.30;52.30;;;;;;5091027;28;20031;-61
2022/03/20 03:51:00;;;;;;;24.15;19.83;;;2.30;52.60;;;;;;5084892;28;20470;-61
2022/03/20 03:53:26;;;;;;;20.05;17.95;;;2.20;53.00;;;;;;5101272;28;20433;-61
2022/03/20 03:55:51;;;;;;;23.25;19.67;;;2.20;53.20;;;;;;5101263;28;20321;-61
2022/03/20 03:58:17;;;;;;;25.38;19.63;;;2.30;53.20;;;;;;5106203;28;20032;-61
2022/03/20 04:00:43;;;;;;;25.80;19.15;;;2.30;53.00;;;;;;5100183;28;20027;-61
2022/03/20 04:03:09;;;;;;;21.30;18.98;;;2.30;53.00;;;;;;5098101;28;20028;-61
2022/03/20 04:05:35;;;;;;;21.75;18.25;;;2.30;53.00;;;;;;5085197;28;20558;-61
2022/03/20 04:08:01;;;;;;;21.92;18.90;;;2.30;52.80;;;;;;5086610;28;20103;-61
2022/03/20 04:10:27;;;;;;;31.42;19.00;;;2.30;52.80;;;;;;5105486;28;20031;-61
2022/03/20 04:12:53;;;;;;;23.77;18.48;;;2.30;53.00;;;;;;5104793;28;20027;-61
2022/03/20 04:15:27;;;;;;;21.63;18.55;;;2.30;53.50;;;;;;5095954;28;20136;-61
2022/03/20 04:17:53;;;;;;;23.48;19.05;;;2.30;53.70;;;;;;5093498;28;20036;-62
2022/03/20 04:20:19;;;;;;;23.50;18.15;;;2.30;53.50;;;;;;5084792;28;20043;-61
2022/03/20 04:23:43;;;;;;;21.38;18.67;;;2.30;53.40;;;;;;5102325;28;20071;-61
2022/03/20 04:25:31;;;;;;;24.02;19.25;;;2.40;53.40;;;;;;5081354;28;20111;-61
2022/03/20 04:27:58;;;;;;;23.23;18.98;;;2.40;53.50;;;;;;5093444;28;20023;-61
2022/03/20 04:30:28;;;;;;;21.85;19.05;;;2.40;53.70;;;;;;5105231;28;20029;-61
2022/03/20 04:32:54;;;;;;;23.15;18.20;;;2.40;53.90;;;;;;5094611;28;20043;-61
2022/03/20 04:35:23;;;;;;;23.88;18.95;;;2.40;54.20;;;;;;5089020;28;20555;-61
2022/03/20 04:37:51;;;;;;;24.77;18.88;;;2.40;54.30;;;;;;5088652;28;20044;-61
2022/03/20 04:40:16;;;;;;;23.92;18.90;;;2.50;54.30;;;;;;5102539;28;20047;-61
2022/03/20 04:42:42;;;;;;;22.23;19.15;;;2.50;54.30;;;;;;5079930;28;20580;-61
2022/03/20 04:45:10;;;;;;;22.23;18.15;;;2.50;54.20;;;;;;5084241;28;21348;-60
2022/03/20 04:58:35;;;;;;;22.77;19.33;;;2.70;53.80;;;;;;5111029;28;20081;-61
2022/03/20 05:01:01;;;;;;;21.73;18.80;;;2.80;53.90;;;;;;5087254;28;20434;-61
2022/03/20 05:03:27;;;;;;;24.08;19.88;;;2.80;53.90;;;;;;5106308;28;20081;-61
2022/03/20 05:05:53;;;;;;;25.25;19.23;;;2.90;53.90;;;;;;5095913;28;20032;-61
2022/03/20 05:08:19;;;;;;;24.75;20.08;;;3.00;53.80;;;;;;5089309;28;20024;-61
2022/03/20 05:13:30;;;;;;;23.00;19.25;;;3.10;54.20;;;;;;5101898;28;20031;-61
2022/03/20 05:15:56;;;;;;;20.95;18.63;;;3.20;54.40;;;;;;5096109;28;20024;-61
2022/03/20 05:18:23;;;;;;;22.70;19.48;;;3.30;54.30;;;;;;5115493;28;20475;-61
2022/03/20 05:20:52;;;;;;;23.95;19.77;;;3.40;54.10;;;;;;5102969;28;20027;-61
2022/03/20 05:23:21;;;;;;;24.20;19.65;;;3.50;54.20;;;;;;5102598;28;20039;-61
2022/03/20 05:25:47;;;;;;;21.77;19.50;;;3.60;54.20;;;;;;5091040;28;20082;-61
2022/03/20 05:28:13;;;;;;;22.35;18.83;;;3.70;53.90;;;;;;5099876;28;20096;-62
2022/03/20 05:30:40;;;;;;;21.05;18.67;;;3.70;53.90;;;;;;5101711;28;20043;-61
2022/03/20 05:33:10;;;;;;;21.13;18.85;;;3.80;53.60;;;;;;5091124;28;20090;-61
2022/03/20 05:35:37;;;;;;;21.67;18.50;;;3.90;53.60;;;;;;5099476;28;20029;-61
2022/03/20 05:38:03;;;;;;;22.23;19.48;;;4.00;53.60;;;;;;5104477;28;20044;-61
2022/03/20 05:40:28;;;;;;;22.75;18.70;;;4.10;53.40;;;;;;5096000;28;20081;-61
2022/03/20 05:42:54;;;;;;;22.52;19.95;;;4.20;53.40;;;;;;5085937;28;20052;-61
2022/03/20 05:45:20;;;;;;;23.33;19.02;;;4.30;53.40;;;;;;5087861;28;20027;-61
2022/03/20 05:47:46;;;;;;;21.90;19.33;;;4.40;53.20;;;;;;5104406;28;20019;-61
2022/03/20 05:50:12;;;;;;;23.52;19.23;;;4.60;53.00;;;;;;5098017;28;20099;-61
2022/03/20 05:52:38;;;;;;;21.27;18.88;;;4.70;52.90;;;;;;5092713;28;20204;-61
2022/03/20 05:55:07;;;;;;;24.30;20.58;;;4.80;52.90;;;;;;5113036;28;20031;-61
2022/03/20 06:00:25;;;;;;;23.60;20.05;;;5.00;52.70;;;;;;5107226;28;20038;-61
2022/03/20 06:02:51;;;;;;;24.35;20.00;;;5.20;52.60;;;;;;5095565;28;20054;-61
2022/03/20 06:05:17;;;;;;;25.08;20.15;;;5.40;52.60;;;;;;5109811;28;20035;-61
2022/03/20 06:07:46;;;;;;;23.85;20.67;;;5.60;52.40;;;;;;5087500;28;20036;-62
2022/03/20 06:10:17;;;;;;;24.05;20.38;;;5.80;52.20;;;;;;5091513;28;20048;-61
2022/03/20 06:12:43;;;;;;;23.58;19.63;;;6.10;52.10;;;;;;5081491;28;20112;-61
2022/03/20 06:15:09;;;;;;;25.42;14.05;;;6.40;52.20;;;;;;5101805;28;20039;-61
2022/03/20 06:17:46;;;;;;;19.20;17.17;;;6.70;52.00;;;;;;5082594;28;20563;-61
2022/03/20 06:20:14;;;;;;;20.58;17.83;;;7.10;51.50;;;;;;5091467;28;20020;-61
2022/03/20 06:22:45;;;;;;;24.55;18.92;;;7.40;50.70;;;;;;5107995;28;20421;-61
2022/03/20 06:25:15;;;;;;;21.70;18.27;;;7.70;50.10;;;;;;5093043;28;20491;-61
2022/03/20 06:27:45;;;;;;;21.80;18.20;;;7.90;49.60;;;;;;5089190;28;20020;-61
2022/03/20 06:30:13;;;;;;;21.47;18.80;;;7.80;49.70;;;;;;5093118;28;20033;-61
2022/03/20 06:32:39;;;;;;;21.13;18.38;;;7.70;49.80;;;;;;5087222;28;20051;-61
2022/03/20 06:35:09;;;;;;;20.35;17.73;;;7.50;49.90;;;;;;5111294;28;20065;-61
2022/03/20 06:37:39;;;;;;;22.23;18.17;;;7.30;50.20;;;;;;5107607;28;20051;-61
2022/03/20 06:40:06;;;;;;;21.83;18.40;;;7.20;50.70;;;;;;5103716;28;20028;-61
2022/03/20 06:42:32;;;;;;;20.63;12.75;;;7.00;51.00;;;;;;5083127;28;20022;-61
2022/03/20 06:44:59;;;;;;;20.38;16.77;;;6.80;51.20;;;;;;5088623;28;20028;-62
2022/03/20 06:47:26;;;;;;;19.73;17.17;;;6.70;51.50;;;;;;5083891;28;20020;-62
2022/03/20 06:49:53;;;;;;;20.27;17.30;;;6.70;51.80;;;;;;5113661;28;20073;-62
2022/03/20 06:52:22;;;;;;;20.90;17.17;;;6.60;51.90;;;;;;5098871;28;20034;-62
2022/03/20 06:54:48;;;;;;;20.10;16.20;;;6.60;51.90;;;;;;5106473;28;20433;-61
2022/03/20 06:57:17;;;;;;;20.15;17.75;;;6.60;52.00;;;;;;5086678;28;20039;-61
2022/03/20 06:59:43;;;;;;;22.13;18.00;;;6.50;51.90;;;;;;5101267;28;20116;-61
2022/03/20 07:02:08;;;;;;;18.77;16.85;;;6.50;52.10;;;;;;5096367;28;20479;-60
2022/03/20 07:04:34;;;;;;;19.95;16.90;;;6.50;52.10;;;;;;5103422;27;20020;-62
2022/03/20 07:07:00;;;;;;;22.70;11.80;;;6.50;52.10;;;;;;5084578;28;20030;-61
2022/03/20 07:09:27;;;;;;;20.40;16.55;;;6.50;52.20;;;;;;5094360;28;20072;-61
2022/03/20 07:11:52;;;;;;;20.52;17.23;;;6.50;52.60;;;;;;5083719;28;20064;-61
2022/03/20 07:14:19;;;;;;;19.25;11.85;;;6.50;52.40;;;;;;5102460;28;20395;-61
2022/03/20 07:16:45;;;;;;;20.33;16.00;;;6.40;52.40;;;;;;5093138;28;20034;-61
2022/03/20 07:19:11;;;;;;;19.67;17.15;;;6.40;52.60;;;;;;5101123;28;20033;-61
2022/03/20 07:21:37;;;;;;;19.65;16.85;;;6.40;52.50;;;;;;5097929;28;20032;-61
2022/03/20 07:24:03;;;;;;;22.33;17.33;;;6.40;52.40;;;;;;5106931;28;20031;-61
2022/03/20 07:29:32;;;;;;;23.92;19.23;;;6.30;52.50;;;;;;5108950;28;20638;-62
2022/03/20 07:31:59;;;;;;;26.98;19.98;;;6.30;52.80;;;;;;5085513;28;20031;-61
2022/03/20 07:34:25;;;;;;;23.00;19.15;;;6.20;53.00;;;;;;5113183;28;20058;-61
2022/03/20 07:36:51;;;;;;;24.25;20.90;;;6.20;52.90;;;;;;5097896;28;20051;-61
2022/03/20 07:39:17;;;;;;;23.65;19.52;;;6.20;53.10;;;;;;5112705;28;20518;-62
2022/03/20 07:41:43;;;;;;;22.65;20.23;;;6.20;53.10;;;;;;5083576;28;20029;-61
2022/03/20 07:44:09;;;;;;;23.17;19.58;;;6.20;53.10;;;;;;5083203;27;20046;-61
2022/03/20 07:46:36;;;;;;;19.60;17.50;;;6.20;53.20;;;;;;5083168;28;20538;-61
2022/03/20 07:49:02;;;;;;;23.00;19.15;;;6.20;53.20;;;;;;5099254;28;20034;-61
2022/03/20 07:51:30;;;;;;;23.90;18.60;;;6.20;53.20;;;;;;5078359;28;20032;-61
2022/03/20 07:53:56;;;;;;;23.98;19.45;;;6.20;53.20;;;;;;5085233;28;20028;-61
2022/03/20 07:56:23;;;;;;;20.48;18.30;;;6.20;53.30;;;;;;5107174;28;20031;-62
2022/03/20 07:58:54;;;;;;;20.45;18.25;;;6.20;53.30;;;;;;5112464;28;20102;-62
2022/03/20 08:01:20;;;;;;;21.27;18.25;;;6.20;53.50;;;;;;5104071;28;20036;-62
2022/03/20 08:03:46;;;;;;;21.77;19.52;;;6.20;53.40;;;;;;5104634;28;20548;-63
2022/03/20 08:06:12;;;;;;;24.55;19.92;;;6.20;53.50;;;;;;5092658;28;20056;-63
2022/03/20 08:08:41;;;;;;;22.25;18.83;;;6.10;53.50;;;;;;5087134;28;20071;-62
2022/03/20 08:11:08;;;;;;;21.42;19.10;;;6.20;53.70;;;;;;5074696;28;20037;-62
2022/03/20 08:13:34;;;;;;;20.88;18.65;;;6.20;53.60;;;;;;5107374;28;20357;-62
2022/03/20 08:16:00;;;;;;;20.67;18.17;;;6.20;53.80;;;;;;5099931;28;20030;-62
2022/03/20 08:18:26;;;;;;;21.38;18.90;;;6.20;53.80;;;;;;5093153;28;20031;-62
2022/03/20 08:20:52;;;;;;;23.17;19.85;;;6.20;53.90;;;;;;5092008;28;20107;-62
2022/03/20 08:23:18;;;;;;;21.00;18.65;;;6.20;53.70;;;;;;5096776;28;20120;-62
2022/03/20 08:25:44;;;;;;;22.08;18.40;;;6.20;53.60;;;;;;5082845;28;20379;-62
2022/03/20 08:28:11;;;;;;;21.55;19.02;;;6.20;53.50;;;;;;5093702;28;20024;-63
2022/03/20 08:30:38;;;;;;;22.33;19.33;;;6.30;53.50;;;;;;5109737;28;20429;-62
2022/03/20 08:33:04;;;;;;;23.50;19.00;;;6.30;53.40;;;;;;5086497;28;20055;-62
2022/03/20 08:35:29;;;;;;;21.42;17.85;;;6.30;53.60;;;;;;5108632;28;20028;-62
2022/03/20 08:37:55;;;;;;;23.90;19.05;;;6.30;53.70;;;;;;5093887;28;20051;-60
2022/03/20 08:40:23;;;;;;;22.23;19.73;;;6.30;53.80;;;;;;5091480;28;20035;-60
2022/03/20 08:42:54;;;;;;;23.52;19.63;;;6.30;53.60;;;;;;5114722;28;20028;-60
2022/03/20 08:45:21;;;;;;;24.92;20.85;;;6.30;53.50;;;;;;5093424;28;20116;-60
2022/03/20 08:47:47;;;;;;;24.13;18.65;;;6.30;53.40;;;;;;5107900;28;20028;-60
2022/03/20 08:50:14;;;;;;;22.25;19.05;;;6.30;53.30;;;;;;5087620;28;20176;-60
2022/03/20 08:52:43;;;;;;;23.27;19.45;;;6.40;53.30;;;;;;5091506;28;20016;-60
2022/03/20 08:55:11;;;;;;;21.48;18.25;;;6.40;53.20;;;;;;5086980;28;20047;-62
2022/03/20 08:57:42;;;;;;;23.65;18.65;;;6.40;53.00;;;;;;5084632;28;20267;-61
2022/03/20 09:00:10;;;;;;;23.88;18.70;;;6.40;52.90;;;;;;5110878;28;20107;-60
2022/03/20 09:02:36;;;;;;;23.77;18.33;;;6.40;52.60;;;;;;5081907;28;20484;-62
2022/03/20 09:05:03;;;;;;;21.83;18.95;;;6.50;52.30;;;;;;5111370;28;20031;-62
2022/03/20 09:07:29;;;;;;;18.35;16.33;;;6.50;52.40;;;;;;5091586;28;20058;-60
2022/03/20 09:09:55;;;;;;;20.95;16.77;;;6.50;52.40;;;;;;5100105;28;20036;-60
2022/03/20 09:12:20;;;;;;;17.73;15.80;;;6.50;52.10;;;;;;5107801;28;20023;-60
2022/03/20 09:14:47;;;;;;;19.30;15.82;;;6.50;51.80;;;;;;5090473;28;20024;-60
2022/03/20 09:19:58;;;;;;;20.75;16.40;;;6.50;51.70;;;;;;5076684;28;20031;-60
2022/03/20 09:22:26;;;;;;;18.00;16.08;;;6.50;51.80;;;;;;5103205;28;20387;-62
2022/03/20 09:24:52;;;;;;;20.00;16.83;;;6.50;51.80;;;;;;5115398;28;20030;-62
2022/03/20 09:27:18;;;;;;;18.40;16.23;;;6.50;51.80;;;;;;5096357;28;20078;-62
2022/03/20 09:29:44;;;;;;;19.27;15.32;;;6.60;51.80;;;;;;5115614;28;20024;-60
2022/03/20 09:32:09;;;;;;;18.83;15.30;;;6.60;51.80;;;;;;5093326;28;20020;-62
2022/03/20 09:34:35;;;;;;;16.75;14.95;;;6.60;51.80;;;;;;5100970;28;20101;-62
2022/03/20 09:37:01;;;;;;;19.17;15.80;;;6.60;51.70;;;;;;5104868;28;20095;-62
2022/03/20 09:39:27;;;;;;;17.77;15.63;;;6.60;51.70;;;;;;5102950;28;20395;-62
2022/03/20 09:41:55;;;;;;;18.48;15.30;;;6.60;51.60;;;;;;5102619;28;20400;-61
2022/03/20 09:44:25;;;;;;;17.65;14.73;;;6.60;51.50;;;;;;5106508;28;20028;-62
2022/03/20 09:46:52;;;;;;;15.48;13.02;;;6.60;51.30;;;;;;5082356;28;20190;-60
2022/03/20 09:49:22;;;;;;;13.95;12.30;;;6.60;51.00;;;;;;5081801;28;20072;-60
2022/03/20 09:51:48;;;;;;;14.55;12.88;;;6.70;50.90;;;;;;5096718;28;20028;-62
2022/03/20 09:54:14;;;;;;;14.73;9.43;;;6.70;50.70;;;;;;5114672;28;20028;-60
2022/03/20 09:56:42;;;;;;;15.88;12.63;;;6.70;50.90;;;;;;5105251;28;20023;-60
2022/03/20 09:59:08;;;;;;;15.38;12.55;;;6.70;50.90;;;;;;5097981;28;20035;-60
2022/03/20 10:01:35;;;;;;;15.88;12.27;;;6.80;50.80;;;;;;5106483;28;20023;-60
2022/03/20 10:04:16;;;;;;;13.25;11.70;;;6.80;50.50;;;;;;5110248;28;20399;-60
2022/03/20 10:06:43;;;;;;;12.93;10.45;;;6.90;50.20;;;;;;5081690;28;20090;-62
2022/03/20 10:09:10;;;;;;;11.63;10.43;;;6.90;50.10;;;;;;5104307;28;20028;-60
2022/03/20 10:11:53;;;;;;;12.27;10.43;;;6.90;49.90;;;;;;5094172;28;20023;-60
2022/03/20 10:14:23;;;;;;;12.55;9.90;;;7.00;49.80;;;;;;5098719;28;20039;-60
2022/03/20 10:17:19;;;;;;;12.80;10.85;;;7.00;50.30;;;;;;5092285;28;20055;-60
2022/03/20 10:19:44;;;;;;;14.52;10.63;;;7.10;50.60;;;;;;5083043;28;20036;-62
2022/03/20 10:22:17;;;;;;;11.43;7.35;;;7.10;50.60;;;;;;5086450;28;20027;-60
2022/03/20 10:24:51;;;;;;;31.77;23.75;;;7.10;50.60;;;;;;5102188;28;20040;-62
2022/03/20 10:27:17;;;;;;;17.27;13.98;;;7.20;50.00;;;;;;5090429;28;20066;-60
2022/03/20 10:29:51;;;;;;;14.13;12.05;;;7.20;49.70;;;;;;5090521;28;20442;-60
2022/03/20 10:32:17;;;;;;;13.00;8.32;;;7.20;49.40;;;;;;5093423;28;20023;-60
2022/03/20 10:34:48;;;;;;;14.68;11.63;;;7.20;49.70;;;;;;5098713;28;20037;-60
2022/03/20 10:37:13;;;;;;;12.63;10.75;;;7.20;49.50;;;;;;5093084;28;20056;-60
2022/03/20 10:39:42;;;;;;;12.93;10.85;;;7.30;49.50;;;;;;5084943;28;20464;-60
2022/03/20 10:42:12;;;;;;;11.15;9.57;;;7.30;49.20;;;;;;5094722;28;20070;-60
2022/03/20 10:44:39;;;;;;;11.10;9.65;;;7.30;49.00;;;;;;5098658;28;20022;-62
2022/03/20 10:47:14;;;;;;;11.82;10.45;;;7.30;48.90;;;;;;5085554;28;20070;-61
2022/03/20 10:49:42;;;;;;;10.85;9.55;;;7.30;48.70;;;;;;5082948;28;20039;-60
2022/03/20 10:52:17;;;;;;;9.55;8.40;;;7.30;48.80;;;;;;5088701;28;20494;-62
2022/03/20 10:54:50;;;;;;;8.95;7.72;;;7.30;49.30;;;;;;5099270;28;20091;-62
2022/03/20 10:57:17;;;;;;;10.32;8.25;;;7.30;49.50;;;;;;5082287;28;20029;-62
2022/03/20 10:59:43;;;;;;;9.07;8.05;;;7.20;49.30;;;;;;5098661;28;20032;-62
2022/03/20 11:02:23;;;;;;;11.30;8.73;;;7.20;49.50;;;;;;5087318;28;20511;-62
2022/03/20 11:04:49;;;;;;;9.68;8.63;;;7.20;49.30;;;;;;5095321;28;20036;-60
2022/03/20 11:07:23;;;;;;;11.43;7.72;;;7.20;49.00;;;;;;5097473;28;20028;-60
2022/03/20 11:09:53;;;;;;;9.40;8.02;;;7.20;48.40;;;;;;5103668;28;20030;-60
2022/03/20 11:12:26;;;;;;;9.60;8.07;;;7.20;48.50;;;;;;5089107;28;20038;-62
2022/03/20 11:14:54;;;;;;;8.40;6.70;;;7.20;48.60;;;;;;5095953;28;20020;-62
2022/03/20 11:17:24;;;;;;;6.57;5.93;;;7.20;48.00;;;;;;5084026;28;20028;-60
2022/03/20 11:19:53;;;;;;;6.85;6.10;;;7.20;47.60;;;;;;5078256;28;20438;-62
2022/03/20 11:22:21;;;;;;;9.82;6.45;;;7.20;47.50;;;;;;5087970;28;20039;-62
2022/03/20 11:24:50;;;;;;;7.30;6.25;;;7.20;48.00;;;;;;5091660;28;20115;-62
2022/03/20 11:27:41;;;;;;;8.43;5.38;;;7.20;47.50;;;;;;5101945;28;20054;-62
2022/03/20 11:30:08;;;;;;;6.47;5.20;;;7.20;46.50;;;;;;5102411;28;20112;-62
2022/03/20 11:32:34;;;;;;;5.25;4.75;;;7.20;46.80;;;;;;5083387;28;20032;-60
2022/03/20 11:35:03;;;;;;;6.60;5.22;;;7.20;46.10;;;;;;5102285;28;20026;-62
2022/03/20 11:37:46;;;;;;;5.68;5.05;;;7.20;45.70;;;;;;5088452;28;20404;-60
2022/03/20 11:40:21;;;;;;;6.55;5.15;;;7.20;45.80;;;;;;5109381;28;20103;-62
2022/03/20 11:42:50;;;;;;;7.30;5.85;;;7.20;46.10;;;;;;5091635;28;20078;-62
2022/03/20 11:45:19;;;;;;;6.68;5.70;;;7.20;46.30;;;;;;5091215;28;20031;-60
2022/03/20 11:47:50;;;;;;;6.28;5.28;;;7.20;46.10;;;;;;5073454;28;20020;-62
2022/03/20 11:50:26;;;;;;;5.93;5.05;;;7.20;46.10;;;;;;5076357;28;20027;-62
2022/03/20 11:53:04;;;;;;;8.13;5.50;;;7.20;46.10;;;;;;5082063;28;20036;-61
2022/03/20 11:55:42;;;;;;;6.50;5.20;;;7.20;46.30;;;;;;5077316;28;20433;-62
2022/03/20 11:58:16;;;;;;;7.20;5.78;;;7.20;46.80;;;;;;5101985;28;20106;-62
2022/03/20 12:00:44;;;;;;;7.72;5.63;;;7.20;47.80;;;;;;5100780;28;20036;-62
2022/03/20 12:03:13;;;;;;;6.35;5.65;;;7.20;47.80;;;;;;5082173;28;20035;-62
2022/03/20 12:05:41;;;;;;;7.15;5.47;;;7.10;47.60;;;;;;5074947;28;20445;-62
2022/03/20 12:08:44;;;;;;;6.25;5.60;;;7.20;48.10;;;;;;5092877;28;20084;-61
2022/03/20 12:11:33;;;;;;;7.32;5.07;;;7.20;47.90;;;;;;5088492;28;20025;-60
2022/03/20 12:14:30;;;;;;;6.45;5.25;;;7.20;47.90;;;;;;5112313;28;20016;-60
2022/03/20 12:16:58;;;;;;;8.05;6.00;;;7.20;47.60;;;;;;5090441;28;20384;-60
2022/03/20 12:19:35;;;;;;;5.55;4.80;;;7.20;47.90;;;;;;5090871;28;20032;-61
2022/03/20 12:22:15;;;;;;;6.80;5.18;;;7.20;47.40;;;;;;5090317;28;20061;-63
2022/03/20 12:24:47;;;;;;;6.28;5.53;;;7.20;46.50;;;;;;5091452;28;20492;-61
2022/03/20 12:27:25;;;;;;;6.93;5.45;;;7.20;45.90;;;;;;5080517;28;20028;-63
2022/03/20 12:30:16;;;;;;;5.85;4.78;;;7.20;45.70;;;;;;5108546;28;20115;-61
2022/03/20 12:32:47;;;;;;;5.78;4.72;;;7.20;46.40;;;;;;5079836;28;20020;-61
2022/03/20 12:35:40;;;;;;;5.00;3.97;;;7.20;46.40;;;;;;5078663;28;20039;-63
2022/03/20 12:38:05;;;;;;;4.65;4.10;;;7.20;46.70;;;;;;5079575;28;20032;-63
2022/03/20 12:40:34;;;;;;;5.32;4.53;;;7.20;46.20;;;;;;5106050;28;20102;-63
2022/03/20 12:43:02;;;;;;;4.65;4.10;;;7.20;46.20;;;;;;5090427;28;20028;-62
2022/03/20 12:45:29;;;;;;;5.63;4.25;;;7.20;46.70;;;;;;5106395;28;20055;-62
2022/03/20 12:47:59;;;;;;;5.60;4.78;;;7.20;47.40;;;;;;5089720;28;20020;-62
2022/03/20 12:50:32;;;;;;;5.72;4.53;;;7.20;47.80;;;;;;5098807;28;20024;-63
2022/03/20 12:53:11;;;;;;;8.43;5.80;;;7.20;47.40;;;;;;5103894;28;20059;-64
2022/03/20 12:55:38;;;;;;;8.77;6.00;;;7.20;47.20;;;;;;5085748;28;20404;-65
2022/03/20 12:58:06;;;;;;;7.10;6.05;;;7.20;47.10;;;;;;5096009;28;20444;-61
2022/03/20 13:00:35;;;;;;;6.97;5.78;;;7.20;47.00;;;;;;5092874;28;20561;-62
2022/03/20 13:03:12;;;;;;;5.20;4.70;;;7.30;47.10;;;;;;5084347;28;20420;-63
2022/03/20 13:05:39;;;;;;;5.68;4.90;;;7.30;47.00;;;;;;5091505;28;20484;-61
2022/03/20 13:08:06;;;;;;;6.15;4.93;;;7.30;46.80;;;;;;5092370;28;20016;-61
2022/03/20 13:10:36;;;;;;;5.20;4.70;;;7.30;46.90;;;;;;5089070;28;20070;-61
2022/03/20 13:13:04;;;;;;;6.10;5.38;;;7.30;46.20;;;;;;5089122;28;20015;-61
2022/03/20 13:15:39;;;;;;;6.75;5.30;;;7.20;45.60;;;;;;5097177;28;20036;-61